sensor_id;sensor_type;location;lat;lon;timestamp;P1;durP1;ratioP1;P2;durP2;ratioP2
7076;SDS011;3579;48.956;9.154;2024-01-30T00:02:11;1.93;;;1.73;;
7076;SDS011;3579;48.956;9.154;2024-01-30T00:04:37;2.33;;;1.60;;
7076;SDS011;3579;48.956;9.154;2024-01-30T00:07:03;2.77;;;1.80;;
7076;SDS011;3579;48.956;9.154;2024-01-30T00:09:29;1.70;;;1.50;;
7076;SDS011;3579;48.956;9.154;2024-01-30T00:11:55;1.87;;;1.70;;
7076;SDS011;3579;48.956;9.154;2024-01-30T00:14:21;1.40;;;1.30;;
7076;SDS011;3579;48.956;9.154;2024-01-30T00:16:48;2.17;;;1.60;;
7076;SDS011;3579;48.956;9.154;2024-01-30T00:19:14;1.70;;;1.50;;
7076;SDS011;3579;48.956;9.154;2024-01-30T00:21:40;2.47;;;1.90;;
7076;SDS011;3579;48.956;9.154;2024-01-30T00:24:06;1.70;;;1.50;;
7076;SDS011;3579;48.956;9.154;2024-01-30T00:26:33;1.87;;;1.53;;
7076;SDS011;3579;48.956;9.154;2024-01-30T00:28:59;1.50;;;1.30;;
7076;SDS011;3579;48.956;9.154;2024-01-30T00:31:25;1.67;;;1.40;;
7076;SDS011;3579;48.956;9.154;2024-01-30T00:33:51;1.60;;;1.50;;
7076;SDS011;3579;48.956;9.154;2024-01-30T00:36:17;1.77;;;1.63;;
7076;SDS011;3579;48.956;9.154;2024-01-30T00:38:43;2.77;;;1.63;;
7076;SDS011;3579;48.956;9.154;2024-01-30T00:41:09;1.70;;;1.50;;
7076;SDS011;3579;48.956;9.154;2024-01-30T00:43:35;1.73;;;1.50;;
7076;SDS011;3579;48.956;9.154;2024-01-30T00:46:02;1.80;;;1.63;;
7076;SDS011;3579;48.956;9.154;2024-01-30T00:48:28;2.10;;;1.60;;
7076;SDS011;3579;48.956;9.154;2024-01-30T00:50:54;1.70;;;1.50;;
7076;SDS011;3579;48.956;9.154;2024-01-30T00:53:20;2.43;;;1.70;;
7076;SDS011;3579;48.956;9.154;2024-01-30T00:55:47;2.00;;;1.60;;
7076;SDS011;3579;48.956;9.154;2024-01-30T00:58:13;1.80;;;1.60;;
7076;SDS011;3579;48.956;9.154;2024-01-30T01:00:39;1.93;;;1.50;;
7076;SDS011;3579;48.956;9.154;2024-01-30T01:03:05;1.80;;;1.63;;
7076;SDS011;3579;48.956;9.154;2024-01-30T01:05:31;1.90;;;1.70;;
7076;SDS011;3579;48.956;9.154;2024-01-30T01:07:57;2.03;;;1.73;;
7076;SDS011;3579;48.956;9.154;2024-01-30T01:10:23;1.60;;;1.47;;
7076;SDS011;3579;48.956;9.154;2024-01-30T01:12:49;1.60;;;1.30;;
7076;SDS011;3579;48.956;9.154;2024-01-30T01:15:15;1.40;;;1.30;;
7076;SDS011;3579;48.956;9.154;2024-01-30T01:17:41;1.70;;;1.53;;
7076;SDS011;3579;48.956;9.154;2024-01-30T01:20:07;2.10;;;1.70;;
7076;SDS011;3579;48.956;9.154;2024-01-30T01:22:34;1.60;;;1.47;;
7076;SDS011;3579;48.956;9.154;2024-01-30T01:25:00;2.40;;;1.80;;
7076;SDS011;3579;48.956;9.154;2024-01-30T01:27:26;1.93;;;1.60;;
7076;SDS011;3579;48.956;9.154;2024-01-30T01:29:53;1.70;;;1.50;;
7076;SDS011;3579;48.956;9.154;2024-01-30T01:32:19;1.60;;;1.50;;
7076;SDS011;3579;48.956;9.154;2024-01-30T01:34:45;2.17;;;1.77;;
7076;SDS011;3579;48.956;9.154;2024-01-30T01:37:11;1.50;;;1.40;;
7076;SDS011;3579;48.956;9.154;2024-01-30T01:39:37;2.00;;;1.60;;
7076;SDS011;3579;48.956;9.154;2024-01-30T01:42:03;1.70;;;1.53;;
7076;SDS011;3579;48.956;9.154;2024-01-30T01:44:29;1.80;;;1.60;;
7076;SDS011;3579;48.956;9.154;2024-01-30T01:46:55;1.73;;;1.60;;
7076;SDS011;3579;48.956;9.154;2024-01-30T01:49:24;1.53;;;1.43;;
7076;SDS011;3579;48.956;9.154;2024-01-30T01:51:52;2.00;;;1.60;;
7076;SDS011;3579;48.956;9.154;2024-01-30T01:54:22;1.60;;;1.50;;
7076;SDS011;3579;48.956;9.154;2024-01-30T01:56:49;1.80;;;1.40;;
7076;SDS011;3579;48.956;9.154;2024-01-30T01:59:16;1.70;;;1.60;;
7076;SDS011;3579;48.956;9.154;2024-01-30T02:01:43;1.57;;;1.47;;
7076;SDS011;3579;48.956;9.154;2024-01-30T02:04:11;1.60;;;1.47;;
7076;SDS011;3579;48.956;9.154;2024-01-30T02:06:37;2.30;;;1.70;;
7076;SDS011;3579;48.956;9.154;2024-01-30T02:09:03;2.47;;;1.80;;
7076;SDS011;3579;48.956;9.154;2024-01-30T02:11:30;2.00;;;1.70;;
7076;SDS011;3579;48.956;9.154;2024-01-30T02:13:57;1.87;;;1.30;;
7076;SDS011;3579;48.956;9.154;2024-01-30T02:16:27;2.00;;;1.70;;
7076;SDS011;3579;48.956;9.154;2024-01-30T02:18:53;1.77;;;1.50;;
7076;SDS011;3579;48.956;9.154;2024-01-30T02:21:19;1.60;;;1.50;;
7076;SDS011;3579;48.956;9.154;2024-01-30T02:23:48;1.73;;;1.63;;
7076;SDS011;3579;48.956;9.154;2024-01-30T02:26:16;1.70;;;1.60;;
7076;SDS011;3579;48.956;9.154;2024-01-30T02:28:42;1.97;;;1.60;;
7076;SDS011;3579;48.956;9.154;2024-01-30T02:31:08;1.80;;;1.50;;
7076;SDS011;3579;48.956;9.154;2024-01-30T02:33:34;1.77;;;1.63;;
7076;SDS011;3579;48.956;9.154;2024-01-30T02:36:00;2.10;;;1.50;;
7076;SDS011;3579;48.956;9.154;2024-01-30T02:38:27;1.67;;;1.50;;
7076;SDS011;3579;48.956;9.154;2024-01-30T02:40:54;2.00;;;1.50;;
7076;SDS011;3579;48.956;9.154;2024-01-30T02:43:20;1.70;;;1.50;;
7076;SDS011;3579;48.956;9.154;2024-01-30T02:45:46;1.60;;;1.50;;
7076;SDS011;3579;48.956;9.154;2024-01-30T02:48:12;1.47;;;1.37;;
7076;SDS011;3579;48.956;9.154;2024-01-30T02:50:38;2.33;;;1.63;;
7076;SDS011;3579;48.956;9.154;2024-01-30T02:53:04;2.03;;;1.70;;
7076;SDS011;3579;48.956;9.154;2024-01-30T02:55:30;1.90;;;1.50;;
7076;SDS011;3579;48.956;9.154;2024-01-30T02:57:56;1.60;;;1.47;;
7076;SDS011;3579;48.956;9.154;2024-01-30T03:00:23;1.80;;;1.50;;
7076;SDS011;3579;48.956;9.154;2024-01-30T03:02:49;1.87;;;1.70;;
7076;SDS011;3579;48.956;9.154;2024-01-30T03:05:15;1.70;;;1.50;;
7076;SDS011;3579;48.956;9.154;2024-01-30T03:07:41;1.70;;;1.50;;
7076;SDS011;3579;48.956;9.154;2024-01-30T03:10:07;2.67;;;1.70;;
7076;SDS011;3579;48.956;9.154;2024-01-30T03:12:33;1.97;;;1.60;;
7076;SDS011;3579;48.956;9.154;2024-01-30T03:14:59;1.70;;;1.60;;
7076;SDS011;3579;48.956;9.154;2024-01-30T03:17:25;2.00;;;1.63;;
7076;SDS011;3579;48.956;9.154;2024-01-30T03:19:51;1.70;;;1.60;;
7076;SDS011;3579;48.956;9.154;2024-01-30T03:22:17;1.70;;;1.60;;
7076;SDS011;3579;48.956;9.154;2024-01-30T03:24:43;1.60;;;1.40;;
7076;SDS011;3579;48.956;9.154;2024-01-30T03:27:09;2.03;;;1.50;;
7076;SDS011;3579;48.956;9.154;2024-01-30T03:29:35;1.50;;;1.40;;
7076;SDS011;3579;48.956;9.154;2024-01-30T03:32:01;1.97;;;1.77;;
7076;SDS011;3579;48.956;9.154;2024-01-30T03:34:29;1.73;;;1.53;;
7076;SDS011;3579;48.956;9.154;2024-01-30T03:36:55;1.50;;;1.40;;
7076;SDS011;3579;48.956;9.154;2024-01-30T03:39:21;1.80;;;1.70;;
7076;SDS011;3579;48.956;9.154;2024-01-30T03:41:48;1.87;;;1.60;;
7076;SDS011;3579;48.956;9.154;2024-01-30T03:44:14;1.57;;;1.40;;
7076;SDS011;3579;48.956;9.154;2024-01-30T03:46:41;1.57;;;1.40;;
7076;SDS011;3579;48.956;9.154;2024-01-30T03:49:07;1.53;;;1.43;;
7076;SDS011;3579;48.956;9.154;2024-01-30T03:51:34;2.07;;;1.50;;
7076;SDS011;3579;48.956;9.154;2024-01-30T03:54:00;2.03;;;1.80;;
7076;SDS011;3579;48.956;9.154;2024-01-30T03:56:26;1.70;;;1.40;;
7076;SDS011;3579;48.956;9.154;2024-01-30T03:58:52;1.80;;;1.50;;
7076;SDS011;3579;48.956;9.154;2024-01-30T04:01:18;1.70;;;1.50;;
7076;SDS011;3579;48.956;9.154;2024-01-30T04:03:44;1.90;;;1.60;;
7076;SDS011;3579;48.956;9.154;2024-01-30T04:06:11;1.60;;;1.50;;
7076;SDS011;3579;48.956;9.154;2024-01-30T04:08:37;1.67;;;1.50;;
7076;SDS011;3579;48.956;9.154;2024-01-30T04:11:04;2.27;;;1.73;;
7076;SDS011;3579;48.956;9.154;2024-01-30T04:13:33;1.83;;;1.60;;
7076;SDS011;3579;48.956;9.154;2024-01-30T04:15:59;1.53;;;1.43;;
7076;SDS011;3579;48.956;9.154;2024-01-30T04:18:29;1.80;;;1.60;;
7076;SDS011;3579;48.956;9.154;2024-01-30T04:20:55;1.67;;;1.50;;
7076;SDS011;3579;48.956;9.154;2024-01-30T04:23:21;1.97;;;1.60;;
7076;SDS011;3579;48.956;9.154;2024-01-30T04:25:47;2.03;;;1.60;;
7076;SDS011;3579;48.956;9.154;2024-01-30T04:28:13;1.90;;;1.57;;
7076;SDS011;3579;48.956;9.154;2024-01-30T04:30:39;2.03;;;1.80;;
7076;SDS011;3579;48.956;9.154;2024-01-30T04:33:05;1.63;;;1.53;;
7076;SDS011;3579;48.956;9.154;2024-01-30T04:35:32;2.27;;;1.60;;
7076;SDS011;3579;48.956;9.154;2024-01-30T04:37:58;2.10;;;1.73;;
7076;SDS011;3579;48.956;9.154;2024-01-30T04:40:24;2.07;;;1.80;;
7076;SDS011;3579;48.956;9.154;2024-01-30T04:42:50;2.10;;;1.67;;
7076;SDS011;3579;48.956;9.154;2024-01-30T04:45:16;2.03;;;1.50;;
7076;SDS011;3579;48.956;9.154;2024-01-30T04:47:42;1.70;;;1.60;;
7076;SDS011;3579;48.956;9.154;2024-01-30T04:50:08;1.60;;;1.50;;
7076;SDS011;3579;48.956;9.154;2024-01-30T04:52:35;1.97;;;1.67;;
7076;SDS011;3579;48.956;9.154;2024-01-30T04:55:01;2.47;;;1.80;;
7076;SDS011;3579;48.956;9.154;2024-01-30T04:57:27;2.03;;;1.80;;
7076;SDS011;3579;48.956;9.154;2024-01-30T04:59:53;1.90;;;1.60;;
7076;SDS011;3579;48.956;9.154;2024-01-30T05:02:19;1.90;;;1.70;;
7076;SDS011;3579;48.956;9.154;2024-01-30T05:04:45;2.33;;;1.93;;
7076;SDS011;3579;48.956;9.154;2024-01-30T05:07:11;1.90;;;1.70;;
7076;SDS011;3579;48.956;9.154;2024-01-30T05:09:37;2.63;;;1.90;;
7076;SDS011;3579;48.956;9.154;2024-01-30T05:12:03;1.63;;;1.47;;
7076;SDS011;3579;48.956;9.154;2024-01-30T05:14:30;2.10;;;1.90;;
7076;SDS011;3579;48.956;9.154;2024-01-30T05:16:56;2.00;;;1.73;;
7076;SDS011;3579;48.956;9.154;2024-01-30T05:19:22;2.20;;;1.77;;
7076;SDS011;3579;48.956;9.154;2024-01-30T05:21:49;2.27;;;1.70;;
7076;SDS011;3579;48.956;9.154;2024-01-30T05:24:15;1.60;;;1.50;;
7076;SDS011;3579;48.956;9.154;2024-01-30T05:26:41;2.33;;;1.90;;
7076;SDS011;3579;48.956;9.154;2024-01-30T05:29:07;1.90;;;1.70;;
7076;SDS011;3579;48.956;9.154;2024-01-30T05:31:34;1.90;;;1.60;;
7076;SDS011;3579;48.956;9.154;2024-01-30T05:34:00;2.00;;;1.80;;
7076;SDS011;3579;48.956;9.154;2024-01-30T05:36:26;2.53;;;1.70;;
7076;SDS011;3579;48.956;9.154;2024-01-30T05:38:52;2.00;;;1.80;;
7076;SDS011;3579;48.956;9.154;2024-01-30T05:41:19;1.77;;;1.67;;
7076;SDS011;3579;48.956;9.154;2024-01-30T05:43:46;2.10;;;1.80;;
7076;SDS011;3579;48.956;9.154;2024-01-30T05:46:12;2.63;;;1.90;;
7076;SDS011;3579;48.956;9.154;2024-01-30T05:48:38;1.80;;;1.60;;
7076;SDS011;3579;48.956;9.154;2024-01-30T05:51:04;2.03;;;1.80;;
7076;SDS011;3579;48.956;9.154;2024-01-30T05:53:32;2.43;;;1.77;;
7076;SDS011;3579;48.956;9.154;2024-01-30T05:55:58;2.00;;;1.80;;
7076;SDS011;3579;48.956;9.154;2024-01-30T05:58:24;1.57;;;1.47;;
7076;SDS011;3579;48.956;9.154;2024-01-30T06:00:50;1.97;;;1.77;;
7076;SDS011;3579;48.956;9.154;2024-01-30T06:03:17;1.80;;;1.70;;
7076;SDS011;3579;48.956;9.154;2024-01-30T06:05:43;2.27;;;1.83;;
7076;SDS011;3579;48.956;9.154;2024-01-30T06:08:09;2.47;;;1.60;;
7076;SDS011;3579;48.956;9.154;2024-01-30T06:10:35;1.90;;;1.70;;
7076;SDS011;3579;48.956;9.154;2024-01-30T06:13:01;1.93;;;1.73;;
7076;SDS011;3579;48.956;9.154;2024-01-30T06:15:27;2.33;;;2.00;;
7076;SDS011;3579;48.956;9.154;2024-01-30T06:17:55;2.20;;;1.70;;
7076;SDS011;3579;48.956;9.154;2024-01-30T06:20:21;1.93;;;1.70;;
7076;SDS011;3579;48.956;9.154;2024-01-30T06:22:47;2.47;;;1.90;;
7076;SDS011;3579;48.956;9.154;2024-01-30T06:25:13;1.90;;;1.70;;
7076;SDS011;3579;48.956;9.154;2024-01-30T06:27:39;1.83;;;1.70;;
7076;SDS011;3579;48.956;9.154;2024-01-30T06:30:06;1.93;;;1.73;;
7076;SDS011;3579;48.956;9.154;2024-01-30T06:32:32;1.93;;;1.60;;
7076;SDS011;3579;48.956;9.154;2024-01-30T06:35:00;1.97;;;1.70;;
7076;SDS011;3579;48.956;9.154;2024-01-30T06:37:26;1.90;;;1.70;;
7076;SDS011;3579;48.956;9.154;2024-01-30T06:39:52;1.83;;;1.60;;
7076;SDS011;3579;48.956;9.154;2024-01-30T06:42:18;2.00;;;1.70;;
7076;SDS011;3579;48.956;9.154;2024-01-30T06:44:44;2.20;;;1.73;;
7076;SDS011;3579;48.956;9.154;2024-01-30T06:47:10;2.50;;;1.90;;
7076;SDS011;3579;48.956;9.154;2024-01-30T06:49:36;2.00;;;1.80;;
7076;SDS011;3579;48.956;9.154;2024-01-30T06:52:06;2.30;;;1.90;;
7076;SDS011;3579;48.956;9.154;2024-01-30T06:54:33;1.90;;;1.70;;
7076;SDS011;3579;48.956;9.154;2024-01-30T06:56:59;1.97;;;1.77;;
7076;SDS011;3579;48.956;9.154;2024-01-30T06:59:26;1.87;;;1.60;;
7076;SDS011;3579;48.956;9.154;2024-01-30T07:01:52;1.97;;;1.77;;
7076;SDS011;3579;48.956;9.154;2024-01-30T07:04:17;1.80;;;1.60;;
7076;SDS011;3579;48.956;9.154;2024-01-30T07:06:44;1.97;;;1.60;;
7076;SDS011;3579;48.956;9.154;2024-01-30T07:09:10;2.30;;;1.90;;
7076;SDS011;3579;48.956;9.154;2024-01-30T07:11:37;1.90;;;1.70;;
7076;SDS011;3579;48.956;9.154;2024-01-30T07:14:03;2.00;;;1.70;;
7076;SDS011;3579;48.956;9.154;2024-01-30T07:16:30;2.00;;;1.67;;
7076;SDS011;3579;48.956;9.154;2024-01-30T07:18:56;2.37;;;1.87;;
7076;SDS011;3579;48.956;9.154;2024-01-30T07:21:22;2.07;;;1.87;;
7076;SDS011;3579;48.956;9.154;2024-01-30T07:23:55;2.30;;;1.87;;
7076;SDS011;3579;48.956;9.154;2024-01-30T07:26:22;2.23;;;1.90;;
7076;SDS011;3579;48.956;9.154;2024-01-30T07:28:48;1.87;;;1.73;;
7076;SDS011;3579;48.956;9.154;2024-01-30T07:31:15;1.93;;;1.80;;
7076;SDS011;3579;48.956;9.154;2024-01-30T07:33:41;2.00;;;1.80;;
7076;SDS011;3579;48.956;9.154;2024-01-30T07:36:07;2.30;;;1.90;;
7076;SDS011;3579;48.956;9.154;2024-01-30T07:38:35;2.10;;;1.90;;
7076;SDS011;3579;48.956;9.154;2024-01-30T07:41:01;2.50;;;1.80;;
7076;SDS011;3579;48.956;9.154;2024-01-30T07:43:27;2.53;;;2.13;;
7076;SDS011;3579;48.956;9.154;2024-01-30T07:45:53;2.00;;;1.80;;
7076;SDS011;3579;48.956;9.154;2024-01-30T07:48:19;2.40;;;2.10;;
7076;SDS011;3579;48.956;9.154;2024-01-30T07:50:45;2.93;;;2.10;;
7076;SDS011;3579;48.956;9.154;2024-01-30T07:53:11;2.47;;;2.00;;
7076;SDS011;3579;48.956;9.154;2024-01-30T07:55:37;2.60;;;2.00;;
7076;SDS011;3579;48.956;9.154;2024-01-30T07:58:04;2.00;;;1.80;;
7076;SDS011;3579;48.956;9.154;2024-01-30T08:00:30;2.23;;;1.90;;
7076;SDS011;3579;48.956;9.154;2024-01-30T08:02:56;2.30;;;1.97;;
7076;SDS011;3579;48.956;9.154;2024-01-30T08:05:24;2.00;;;1.80;;
7076;SDS011;3579;48.956;9.154;2024-01-30T08:07:50;2.10;;;1.90;;
7076;SDS011;3579;48.956;9.154;2024-01-30T08:10:16;2.57;;;2.23;;
7076;SDS011;3579;48.956;9.154;2024-01-30T08:12:45;2.00;;;1.80;;
7076;SDS011;3579;48.956;9.154;2024-01-30T08:15:11;2.60;;;1.87;;
7076;SDS011;3579;48.956;9.154;2024-01-30T08:17:38;2.50;;;2.00;;
7076;SDS011;3579;48.956;9.154;2024-01-30T08:20:05;2.53;;;1.97;;
7076;SDS011;3579;48.956;9.154;2024-01-30T08:22:32;2.40;;;1.90;;
7076;SDS011;3579;48.956;9.154;2024-01-30T08:24:58;2.20;;;2.00;;
7076;SDS011;3579;48.956;9.154;2024-01-30T08:27:24;2.60;;;2.10;;
7076;SDS011;3579;48.956;9.154;2024-01-30T08:29:50;2.40;;;2.07;;
7076;SDS011;3579;48.956;9.154;2024-01-30T08:32:16;2.50;;;2.20;;
7076;SDS011;3579;48.956;9.154;2024-01-30T08:34:42;2.30;;;1.90;;
7076;SDS011;3579;48.956;9.154;2024-01-30T08:37:09;2.43;;;1.80;;
7076;SDS011;3579;48.956;9.154;2024-01-30T08:39:35;2.47;;;2.00;;
7076;SDS011;3579;48.956;9.154;2024-01-30T08:42:01;2.30;;;2.00;;
7076;SDS011;3579;48.956;9.154;2024-01-30T08:44:27;2.40;;;2.20;;
7076;SDS011;3579;48.956;9.154;2024-01-30T08:46:53;3.37;;;2.17;;
7076;SDS011;3579;48.956;9.154;2024-01-30T08:49:19;2.23;;;2.00;;
7076;SDS011;3579;48.956;9.154;2024-01-30T08:51:45;2.50;;;2.20;;
7076;SDS011;3579;48.956;9.154;2024-01-30T08:54:12;2.63;;;1.90;;
7076;SDS011;3579;48.956;9.154;2024-01-30T08:56:39;3.33;;;2.20;;
7076;SDS011;3579;48.956;9.154;2024-01-30T08:59:05;2.43;;;2.00;;
7076;SDS011;3579;48.956;9.154;2024-01-30T09:01:31;2.60;;;2.20;;
7076;SDS011;3579;48.956;9.154;2024-01-30T09:03:57;3.13;;;2.30;;
7076;SDS011;3579;48.956;9.154;2024-01-30T09:06:23;2.27;;;2.00;;
7076;SDS011;3579;48.956;9.154;2024-01-30T09:08:52;2.40;;;2.20;;
7076;SDS011;3579;48.956;9.154;2024-01-30T09:11:18;2.33;;;2.13;;
7076;SDS011;3579;48.956;9.154;2024-01-30T09:13:44;2.77;;;2.43;;
7076;SDS011;3579;48.956;9.154;2024-01-30T09:16:10;2.27;;;2.03;;
7076;SDS011;3579;48.956;9.154;2024-01-30T09:18:36;2.67;;;2.30;;
7076;SDS011;3579;48.956;9.154;2024-01-30T09:21:02;2.93;;;2.33;;
7076;SDS011;3579;48.956;9.154;2024-01-30T09:23:28;3.07;;;2.47;;
7076;SDS011;3579;48.956;9.154;2024-01-30T09:25:55;2.20;;;1.83;;
7076;SDS011;3579;48.956;9.154;2024-01-30T09:28:21;2.47;;;2.27;;
7076;SDS011;3579;48.956;9.154;2024-01-30T09:30:47;2.57;;;2.20;;
7076;SDS011;3579;48.956;9.154;2024-01-30T09:33:13;2.30;;;2.10;;
7076;SDS011;3579;48.956;9.154;2024-01-30T09:35:39;2.60;;;2.40;;
7076;SDS011;3579;48.956;9.154;2024-01-30T09:38:05;2.20;;;2.00;;
7076;SDS011;3579;48.956;9.154;2024-01-30T09:40:31;2.37;;;2.17;;
7076;SDS011;3579;48.956;9.154;2024-01-30T09:42:57;2.30;;;2.10;;
7076;SDS011;3579;48.956;9.154;2024-01-30T09:45:27;2.93;;;2.47;;
7076;SDS011;3579;48.956;9.154;2024-01-30T09:47:55;2.63;;;2.17;;
7076;SDS011;3579;48.956;9.154;2024-01-30T09:50:24;3.20;;;2.40;;
7076;SDS011;3579;48.956;9.154;2024-01-30T09:52:50;2.73;;;2.00;;
7076;SDS011;3579;48.956;9.154;2024-01-30T09:55:18;2.83;;;2.20;;
7076;SDS011;3579;48.956;9.154;2024-01-30T09:57:44;2.37;;;2.10;;
7076;SDS011;3579;48.956;9.154;2024-01-30T10:00:11;2.37;;;2.13;;
7076;SDS011;3579;48.956;9.154;2024-01-30T10:02:38;3.63;;;2.43;;
7076;SDS011;3579;48.956;9.154;2024-01-30T10:05:05;3.37;;;2.57;;
7076;SDS011;3579;48.956;9.154;2024-01-30T10:07:31;2.77;;;2.20;;
7076;SDS011;3579;48.956;9.154;2024-01-30T10:09:57;2.87;;;2.20;;
7076;SDS011;3579;48.956;9.154;2024-01-30T10:12:25;2.70;;;2.20;;
7076;SDS011;3579;48.956;9.154;2024-01-30T10:14:52;2.80;;;2.40;;
7076;SDS011;3579;48.956;9.154;2024-01-30T10:17:18;2.90;;;2.30;;
7076;SDS011;3579;48.956;9.154;2024-01-30T10:19:46;2.60;;;2.20;;
7076;SDS011;3579;48.956;9.154;2024-01-30T10:22:12;2.77;;;2.30;;
7076;SDS011;3579;48.956;9.154;2024-01-30T10:24:39;3.57;;;2.53;;
7076;SDS011;3579;48.956;9.154;2024-01-30T10:27:05;2.40;;;2.20;;
7076;SDS011;3579;48.956;9.154;2024-01-30T10:29:32;2.77;;;2.13;;
7076;SDS011;3579;48.956;9.154;2024-01-30T10:31:59;2.60;;;2.40;;
7076;SDS011;3579;48.956;9.154;2024-01-30T10:34:25;3.37;;;2.30;;
7076;SDS011;3579;48.956;9.154;2024-01-30T10:36:54;2.40;;;2.03;;
7076;SDS011;3579;48.956;9.154;2024-01-30T10:39:34;2.67;;;2.30;;
7076;SDS011;3579;48.956;9.154;2024-01-30T10:42:11;4.53;;;2.37;;
7076;SDS011;3579;48.956;9.154;2024-01-30T10:44:48;3.10;;;2.27;;
7076;SDS011;3579;48.956;9.154;2024-01-30T10:47:17;2.43;;;2.17;;
7076;SDS011;3579;48.956;9.154;2024-01-30T10:49:50;3.43;;;2.50;;
7076;SDS011;3579;48.956;9.154;2024-01-30T10:52:18;3.40;;;2.43;;
7076;SDS011;3579;48.956;9.154;2024-01-30T10:54:46;2.30;;;2.10;;
7076;SDS011;3579;48.956;9.154;2024-01-30T10:57:12;2.67;;;2.27;;
7076;SDS011;3579;48.956;9.154;2024-01-30T10:59:39;3.33;;;2.50;;
7076;SDS011;3579;48.956;9.154;2024-01-30T11:02:07;2.63;;;2.30;;
7076;SDS011;3579;48.956;9.154;2024-01-30T11:04:38;2.50;;;2.30;;
7076;SDS011;3579;48.956;9.154;2024-01-30T11:07:23;2.40;;;2.10;;
7076;SDS011;3579;48.956;9.154;2024-01-30T11:09:52;3.33;;;2.37;;
7076;SDS011;3579;48.956;9.154;2024-01-30T11:12:22;3.30;;;2.13;;
7076;SDS011;3579;48.956;9.154;2024-01-30T11:15:01;2.47;;;2.10;;
7076;SDS011;3579;48.956;9.154;2024-01-30T11:20:18;4.00;;;2.60;;
7076;SDS011;3579;48.956;9.154;2024-01-30T11:22:52;2.60;;;2.20;;
7076;SDS011;3579;48.956;9.154;2024-01-30T11:25:19;2.93;;;2.40;;
7076;SDS011;3579;48.956;9.154;2024-01-30T11:27:46;3.20;;;2.40;;
7076;SDS011;3579;48.956;9.154;2024-01-30T11:30:21;3.17;;;2.63;;
7076;SDS011;3579;48.956;9.154;2024-01-30T11:35:53;2.37;;;2.17;;
7076;SDS011;3579;48.956;9.154;2024-01-30T11:38:19;2.67;;;2.17;;
7076;SDS011;3579;48.956;9.154;2024-01-30T11:40:46;3.23;;;2.43;;
7076;SDS011;3579;48.956;9.154;2024-01-30T11:43:14;2.83;;;2.53;;
7076;SDS011;3579;48.956;9.154;2024-01-30T11:45:42;2.53;;;2.17;;
7076;SDS011;3579;48.956;9.154;2024-01-30T11:48:09;3.10;;;2.60;;
7076;SDS011;3579;48.956;9.154;2024-01-30T11:50:37;2.60;;;2.13;;
7076;SDS011;3579;48.956;9.154;2024-01-30T11:53:05;3.13;;;2.63;;
7076;SDS011;3579;48.956;9.154;2024-01-30T11:55:31;2.87;;;2.30;;
7076;SDS011;3579;48.956;9.154;2024-01-30T11:57:57;2.87;;;2.33;;
7076;SDS011;3579;48.956;9.154;2024-01-30T12:00:24;3.47;;;2.47;;
7076;SDS011;3579;48.956;9.154;2024-01-30T12:02:51;3.00;;;2.10;;
7076;SDS011;3579;48.956;9.154;2024-01-30T12:05:24;2.40;;;2.20;;
7076;SDS011;3579;48.956;9.154;2024-01-30T12:07:51;2.77;;;2.43;;
7076;SDS011;3579;48.956;9.154;2024-01-30T12:10:17;2.53;;;2.20;;
7076;SDS011;3579;48.956;9.154;2024-01-30T12:12:50;4.07;;;2.30;;
7076;SDS011;3579;48.956;9.154;2024-01-30T12:15:18;2.87;;;2.40;;
7076;SDS011;3579;48.956;9.154;2024-01-30T12:17:47;3.57;;;2.33;;
7076;SDS011;3579;48.956;9.154;2024-01-30T12:20:14;3.53;;;2.43;;
7076;SDS011;3579;48.956;9.154;2024-01-30T12:22:43;3.03;;;2.40;;
7076;SDS011;3579;48.956;9.154;2024-01-30T12:25:13;7.27;;;2.47;;
7076;SDS011;3579;48.956;9.154;2024-01-30T12:27:44;3.10;;;2.50;;
7076;SDS011;3579;48.956;9.154;2024-01-30T12:30:12;2.97;;;2.23;;
7076;SDS011;3579;48.956;9.154;2024-01-30T12:32:40;3.27;;;2.57;;
7076;SDS011;3579;48.956;9.154;2024-01-30T12:35:12;3.73;;;2.57;;
7076;SDS011;3579;48.956;9.154;2024-01-30T12:37:39;3.43;;;2.40;;
7076;SDS011;3579;48.956;9.154;2024-01-30T12:40:10;3.33;;;2.33;;
7076;SDS011;3579;48.956;9.154;2024-01-30T12:42:38;3.80;;;2.33;;
7076;SDS011;3579;48.956;9.154;2024-01-30T12:45:05;3.10;;;2.30;;
7076;SDS011;3579;48.956;9.154;2024-01-30T12:47:31;6.33;;;2.30;;
7076;SDS011;3579;48.956;9.154;2024-01-30T12:49:57;3.47;;;2.50;;
7076;SDS011;3579;48.956;9.154;2024-01-30T12:52:23;3.43;;;2.40;;
7076;SDS011;3579;48.956;9.154;2024-01-30T12:54:50;3.30;;;2.43;;
7076;SDS011;3579;48.956;9.154;2024-01-30T12:57:17;3.13;;;2.40;;
7076;SDS011;3579;48.956;9.154;2024-01-30T12:59:44;2.73;;;2.47;;
7076;SDS011;3579;48.956;9.154;2024-01-30T13:02:12;3.37;;;2.40;;
7076;SDS011;3579;48.956;9.154;2024-01-30T13:04:38;2.73;;;2.33;;
7076;SDS011;3579;48.956;9.154;2024-01-30T13:07:05;2.50;;;2.10;;
7076;SDS011;3579;48.956;9.154;2024-01-30T13:09:31;2.90;;;2.17;;
7076;SDS011;3579;48.956;9.154;2024-01-30T13:11:58;2.60;;;2.23;;
7076;SDS011;3579;48.956;9.154;2024-01-30T13:14:25;3.03;;;2.13;;
7076;SDS011;3579;48.956;9.154;2024-01-30T13:16:51;4.70;;;2.23;;
7076;SDS011;3579;48.956;9.154;2024-01-30T13:19:18;3.13;;;2.73;;
7076;SDS011;3579;48.956;9.154;2024-01-30T13:21:44;3.93;;;2.60;;
7076;SDS011;3579;48.956;9.154;2024-01-30T13:24:10;2.90;;;2.40;;
7076;SDS011;3579;48.956;9.154;2024-01-30T13:26:36;2.87;;;2.20;;
7076;SDS011;3579;48.956;9.154;2024-01-30T13:29:02;2.80;;;2.20;;
7076;SDS011;3579;48.956;9.154;2024-01-30T13:31:29;3.07;;;2.37;;
7076;SDS011;3579;48.956;9.154;2024-01-30T13:33:55;3.10;;;2.30;;
7076;SDS011;3579;48.956;9.154;2024-01-30T13:36:21;2.83;;;2.33;;
7076;SDS011;3579;48.956;9.154;2024-01-30T13:38:48;2.50;;;2.10;;
7076;SDS011;3579;48.956;9.154;2024-01-30T13:41:14;2.43;;;2.03;;
7076;SDS011;3579;48.956;9.154;2024-01-30T13:43:40;5.33;;;2.37;;
7076;SDS011;3579;48.956;9.154;2024-01-30T13:46:06;3.20;;;2.40;;
7076;SDS011;3579;48.956;9.154;2024-01-30T13:48:32;2.87;;;2.30;;
7076;SDS011;3579;48.956;9.154;2024-01-30T13:50:58;3.57;;;2.40;;
7076;SDS011;3579;48.956;9.154;2024-01-30T13:53:25;2.47;;;2.10;;
7076;SDS011;3579;48.956;9.154;2024-01-30T13:55:51;2.30;;;2.10;;
7076;SDS011;3579;48.956;9.154;2024-01-30T13:58:17;2.73;;;2.30;;
7076;SDS011;3579;48.956;9.154;2024-01-30T14:00:43;3.77;;;2.40;;
7076;SDS011;3579;48.956;9.154;2024-01-30T14:03:09;4.43;;;2.17;;
7076;SDS011;3579;48.956;9.154;2024-01-30T14:05:35;2.43;;;2.17;;
7076;SDS011;3579;48.956;9.154;2024-01-30T14:08:01;3.00;;;2.50;;
7076;SDS011;3579;48.956;9.154;2024-01-30T14:10:27;2.70;;;2.20;;
7076;SDS011;3579;48.956;9.154;2024-01-30T14:12:53;4.53;;;2.33;;
7076;SDS011;3579;48.956;9.154;2024-01-30T14:15:20;3.53;;;2.37;;
7076;SDS011;3579;48.956;9.154;2024-01-30T14:17:47;2.90;;;2.30;;
7076;SDS011;3579;48.956;9.154;2024-01-30T14:20:14;4.23;;;2.40;;
7076;SDS011;3579;48.956;9.154;2024-01-30T14:22:43;2.40;;;2.20;;
7076;SDS011;3579;48.956;9.154;2024-01-30T14:25:10;3.17;;;2.30;;
7076;SDS011;3579;48.956;9.154;2024-01-30T14:27:36;4.17;;;2.13;;
7076;SDS011;3579;48.956;9.154;2024-01-30T14:30:02;3.60;;;2.40;;
7076;SDS011;3579;48.956;9.154;2024-01-30T14:32:28;3.30;;;2.40;;
7076;SDS011;3579;48.956;9.154;2024-01-30T14:34:54;2.60;;;2.10;;
7076;SDS011;3579;48.956;9.154;2024-01-30T14:37:21;2.93;;;2.40;;
7076;SDS011;3579;48.956;9.154;2024-01-30T14:39:47;2.70;;;2.10;;
7076;SDS011;3579;48.956;9.154;2024-01-30T14:42:14;2.40;;;2.17;;
7076;SDS011;3579;48.956;9.154;2024-01-30T14:44:41;2.80;;;2.20;;
7076;SDS011;3579;48.956;9.154;2024-01-30T14:47:07;4.13;;;2.40;;
7076;SDS011;3579;48.956;9.154;2024-01-30T14:49:34;2.93;;;2.40;;
7076;SDS011;3579;48.956;9.154;2024-01-30T14:52:00;2.50;;;2.10;;
7076;SDS011;3579;48.956;9.154;2024-01-30T14:54:27;4.83;;;2.40;;
7076;SDS011;3579;48.956;9.154;2024-01-30T14:56:53;3.03;;;2.30;;
7076;SDS011;3579;48.956;9.154;2024-01-30T14:59:19;2.83;;;2.23;;
7076;SDS011;3579;48.956;9.154;2024-01-30T15:01:45;2.40;;;2.00;;
7076;SDS011;3579;48.956;9.154;2024-01-30T15:04:12;3.10;;;2.33;;
7076;SDS011;3579;48.956;9.154;2024-01-30T15:06:38;2.70;;;2.20;;
7076;SDS011;3579;48.956;9.154;2024-01-30T15:09:08;2.80;;;2.20;;
7076;SDS011;3579;48.956;9.154;2024-01-30T15:11:34;3.47;;;2.30;;
7076;SDS011;3579;48.956;9.154;2024-01-30T15:14:00;5.73;;;2.53;;
7076;SDS011;3579;48.956;9.154;2024-01-30T15:16:26;2.63;;;2.03;;
7076;SDS011;3579;48.956;9.154;2024-01-30T15:18:53;5.17;;;2.20;;